DW4092 Fairfax VA US current weather conditions

sailwx.info

Wind from 284

Air temperature 30.0° C
Dewpoint 21.4° C

Last reported at 2019-Aug-21 22:31 UTC.
Time now 2019-Aug-22 00:13 UTC

Location: N 38°52' W 077°19'.
View on Google Maps.

See reports from other nearby stations

  
Tides and Currents Weather Stations Pressure Air Temp Water Temp Dewpoint Dewpoint Depression Visibility Wind Speed Wind Dir Waves Ship Positions
date/time (UTC)wind fromknots sea level pressurealtimeterstation pressurevisibilityair tempwater tempwave heightnotes
2019-Aug-21 22:31 284 30.0
2019-Aug-21 21:16 163 32.8
2019-Aug-21 19:16 131 0 33.9
2019-Aug-21 19:01 207 0 34.4
2019-Aug-21 17:15 278 1 32.8
2019-Aug-21 16:00 213 1 31.7
2019-Aug-21 14:46 211 1 28.3
2019-Aug-21 14:30 116 0 28.3
2019-Aug-21 11:15 184 20.6
2019-Aug-21 10:01 179 20.6
2019-Aug-21 08:47 168 20.6
2019-Aug-21 08:30 168 20.6
2019-Aug-21 07:01 168 20.6
2019-Aug-21 06:45 168 20.6
2019-Aug-21 05:30 168 20.6
2019-Aug-21 04:15 168 21.1
2019-Aug-21 02:46 140 21.1
2019-Aug-21 02:30 140 21.7
2019-Aug-21 00:46 140 22.2
2019-Aug-21 00:00 115 22.8
2019-Aug-20 23:01 115 1 22.8
2019-Aug-20 21:45 323 1 25.0
2019-Aug-20 18:32 135 0 35.0
2019-Aug-20 17:00 041 1 33.9
2019-Aug-20 15:45 053 1 32.2
2019-Aug-20 14:01 060 25.6
2019-Aug-20 13:45 25.0
2019-Aug-20 11:47 252 22.2
2019-Aug-20 10:31 325 21.7
2019-Aug-20 09:15 325 21.7
2019-Aug-20 07:46 325 22.2
2019-Aug-20 05:33 325 22.2
2019-Aug-20 05:15 325 22.2
2019-Aug-20 04:02 325 22.2
2019-Aug-20 02:45 319 0 27.2
2019-Aug-20 01:32 056 28.3
2019-Aug-20 01:16 056 28.9